sensor_id;sensor_type;location;lat;lon;timestamp;pressure;altitude;pressure_sealevel;temperature;humidity
8705;BME280;4389;41.932;25.904;2023-04-06T00:00:41;100313.13;;;5.28;77.74
8705;BME280;4389;41.932;25.904;2023-04-06T00:03:07;100315.13;;;5.12;77.82
8705;BME280;4389;41.932;25.904;2023-04-06T00:05:36;100312.59;;;5.10;78.45
8705;BME280;4389;41.932;25.904;2023-04-06T00:08:03;100310.53;;;5.03;78.10
8705;BME280;4389;41.932;25.904;2023-04-06T00:10:29;100310.13;;;5.09;78.49
8705;BME280;4389;41.932;25.904;2023-04-06T00:12:58;100304.22;;;4.93;77.53
8705;BME280;4389;41.932;25.904;2023-04-06T00:15:25;100312.63;;;4.98;78.54
8705;BME280;4389;41.932;25.904;2023-04-06T00:17:52;100297.97;;;5.08;78.11
8705;BME280;4389;41.932;25.904;2023-04-06T00:20:19;100298.16;;;5.05;77.12
8705;BME280;4389;41.932;25.904;2023-04-06T00:22:48;100290.09;;;5.08;77.03
8705;BME280;4389;41.932;25.904;2023-04-06T00:25:14;100288.94;;;4.99;78.33
8705;BME280;4389;41.932;25.904;2023-04-06T00:27:42;100284.53;;;4.87;77.98
8705;BME280;4389;41.932;25.904;2023-04-06T00:30:09;100293.97;;;4.90;79.02
8705;BME280;4389;41.932;25.904;2023-04-06T00:32:36;100283.16;;;4.94;79.53
8705;BME280;4389;41.932;25.904;2023-04-06T00:35:04;100282.03;;;4.98;78.85
8705;BME280;4389;41.932;25.904;2023-04-06T00:37:31;100284.63;;;4.86;79.25
8705;BME280;4389;41.932;25.904;2023-04-06T00:40:00;100287.47;;;4.83;78.80
8705;BME280;4389;41.932;25.904;2023-04-06T00:42:27;100288.31;;;4.96;80.17
8705;BME280;4389;41.932;25.904;2023-04-06T00:44:56;100283.16;;;4.82;79.94
8705;BME280;4389;41.932;25.904;2023-04-06T00:47:23;100282.44;;;4.80;79.84
8705;BME280;4389;41.932;25.904;2023-04-06T00:49:52;100280.56;;;4.82;80.71
8705;BME280;4389;41.932;25.904;2023-04-06T00:52:19;100273.63;;;4.81;79.99
8705;BME280;4389;41.932;25.904;2023-04-06T00:54:46;100275.19;;;4.96;80.44
8705;BME280;4389;41.932;25.904;2023-04-06T00:57:14;100273.41;;;4.84;81.22
8705;BME280;4389;41.932;25.904;2023-04-06T00:59:42;100268.81;;;4.87;78.08
8705;BME280;4389;41.932;25.904;2023-04-06T01:02:09;100267.00;;;4.63;78.71
8705;BME280;4389;41.932;25.904;2023-04-06T01:04:36;100271.22;;;4.53;79.09
8705;BME280;4389;41.932;25.904;2023-04-06T01:07:03;100266.38;;;4.59;78.33
8705;BME280;4389;41.932;25.904;2023-04-06T01:09:30;100270.03;;;4.44;79.48
8705;BME280;4389;41.932;25.904;2023-04-06T01:11:57;100269.84;;;4.60;79.33
8705;BME280;4389;41.932;25.904;2023-04-06T01:14:25;100266.06;;;4.64;80.06
8705;BME280;4389;41.932;25.904;2023-04-06T01:16:53;100274.47;;;4.69;81.04
8705;BME280;4389;41.932;25.904;2023-04-06T01:19:19;100275.91;;;4.48;81.61
8705;BME280;4389;41.932;25.904;2023-04-06T01:21:49;100272.81;;;4.29;82.62
8705;BME280;4389;41.932;25.904;2023-04-06T01:24:20;100276.13;;;4.45;82.08
8705;BME280;4389;41.932;25.904;2023-04-06T01:26:47;100281.56;;;4.42;83.32
8705;BME280;4389;41.932;25.904;2023-04-06T01:29:13;100277.41;;;4.52;82.69
8705;BME280;4389;41.932;25.904;2023-04-06T01:31:40;100277.72;;;4.60;83.51
8705;BME280;4389;41.932;25.904;2023-04-06T01:34:07;100269.00;;;4.72;82.55
8705;BME280;4389;41.932;25.904;2023-04-06T01:36:34;100259.56;;;4.94;82.58
8705;BME280;4389;41.932;25.904;2023-04-06T01:39:01;100256.75;;;4.85;82.06
8705;BME280;4389;41.932;25.904;2023-04-06T01:41:29;100261.66;;;4.77;82.67
8705;BME280;4389;41.932;25.904;2023-04-06T01:43:56;100256.84;;;4.71;82.53
8705;BME280;4389;41.932;25.904;2023-04-06T01:46:23;100259.38;;;4.60;83.69
8705;BME280;4389;41.932;25.904;2023-04-06T01:48:49;100257.25;;;4.65;83.13
8705;BME280;4389;41.932;25.904;2023-04-06T01:51:16;100257.47;;;4.74;82.97
8705;BME280;4389;41.932;25.904;2023-04-06T01:53:43;100254.53;;;4.66;82.61
8705;BME280;4389;41.932;25.904;2023-04-06T01:56:10;100257.16;;;4.79;82.86
8705;BME280;4389;41.932;25.904;2023-04-06T01:58:38;100245.63;;;4.69;82.11
8705;BME280;4389;41.932;25.904;2023-04-06T02:01:05;100244.28;;;4.76;81.54
8705;BME280;4389;41.932;25.904;2023-04-06T02:03:32;100247.53;;;4.67;81.26
8705;BME280;4389;41.932;25.904;2023-04-06T02:05:59;100233.78;;;4.76;81.42
8705;BME280;4389;41.932;25.904;2023-04-06T02:08:26;100234.75;;;4.75;80.32
8705;BME280;4389;41.932;25.904;2023-04-06T02:10:53;100233.28;;;4.71;80.38
8705;BME280;4389;41.932;25.904;2023-04-06T02:13:20;100226.25;;;4.71;81.66
8705;BME280;4389;41.932;25.904;2023-04-06T02:15:48;100231.91;;;4.78;82.31
8705;BME280;4389;41.932;25.904;2023-04-06T02:18:15;100237.03;;;4.92;81.89
8705;BME280;4389;41.932;25.904;2023-04-06T02:20:43;100235.44;;;4.89;81.34
8705;BME280;4389;41.932;25.904;2023-04-06T02:23:09;100234.81;;;5.11;80.20
8705;BME280;4389;41.932;25.904;2023-04-06T02:25:36;100236.16;;;5.16;78.77
8705;BME280;4389;41.932;25.904;2023-04-06T02:28:03;100227.66;;;5.13;80.38
8705;BME280;4389;41.932;25.904;2023-04-06T02:30:30;100226.50;;;5.17;79.54
8705;BME280;4389;41.932;25.904;2023-04-06T02:32:59;100232.91;;;5.13;78.00
8705;BME280;4389;41.932;25.904;2023-04-06T02:35:27;100232.72;;;5.03;79.92
8705;BME280;4389;41.932;25.904;2023-04-06T02:37:54;100235.81;;;5.21;79.17
8705;BME280;4389;41.932;25.904;2023-04-06T02:40:21;100223.06;;;5.04;79.67
8705;BME280;4389;41.932;25.904;2023-04-06T02:42:48;100232.72;;;5.16;79.82
8705;BME280;4389;41.932;25.904;2023-04-06T02:45:15;100234.38;;;5.17;79.23
8705;BME280;4389;41.932;25.904;2023-04-06T02:47:42;100232.72;;;5.16;79.65
8705;BME280;4389;41.932;25.904;2023-04-06T02:50:10;100222.66;;;5.10;79.87
8705;BME280;4389;41.932;25.904;2023-04-06T02:52:37;100226.03;;;4.99;80.78
8705;BME280;4389;41.932;25.904;2023-04-06T02:55:05;100233.16;;;4.97;81.50
8705;BME280;4389;41.932;25.904;2023-04-06T02:57:33;100233.38;;;4.82;81.46
8705;BME280;4389;41.932;25.904;2023-04-06T03:00:00;100231.06;;;4.90;81.81
8705;BME280;4389;41.932;25.904;2023-04-06T03:02:26;100231.47;;;4.96;81.62
8705;BME280;4389;41.932;25.904;2023-04-06T03:04:53;100232.44;;;4.83;81.98
8705;BME280;4389;41.932;25.904;2023-04-06T03:07:22;100226.66;;;5.03;81.40
8705;BME280;4389;41.932;25.904;2023-04-06T03:09:49;100226.66;;;5.03;79.18
8705;BME280;4389;41.932;25.904;2023-04-06T03:12:16;100235.56;;;5.00;78.77
8705;BME280;4389;41.932;25.904;2023-04-06T03:14:43;100223.50;;;4.98;78.76
8705;BME280;4389;41.932;25.904;2023-04-06T03:17:10;100231.16;;;5.01;78.05
8705;BME280;4389;41.932;25.904;2023-04-06T03:19:37;100231.25;;;4.99;78.30
8705;BME280;4389;41.932;25.904;2023-04-06T03:22:04;100227.16;;;5.08;79.36
8705;BME280;4389;41.932;25.904;2023-04-06T03:24:32;100222.22;;;5.03;78.02
8705;BME280;4389;41.932;25.904;2023-04-06T03:26:59;100235.66;;;4.99;76.04
8705;BME280;4389;41.932;25.904;2023-04-06T03:29:26;100231.16;;;5.01;76.93
8705;BME280;4389;41.932;25.904;2023-04-06T03:31:53;100229.38;;;5.01;76.82
8705;BME280;4389;41.932;25.904;2023-04-06T03:34:20;100223.94;;;5.04;77.22
8705;BME280;4389;41.932;25.904;2023-04-06T03:36:47;100230.84;;;5.05;77.50
8705;BME280;4389;41.932;25.904;2023-04-06T03:39:15;100231.84;;;5.15;77.54
8705;BME280;4389;41.932;25.904;2023-04-06T03:41:43;100229.66;;;5.09;76.88
8705;BME280;4389;41.932;25.904;2023-04-06T03:44:10;100230.28;;;5.13;77.60
8705;BME280;4389;41.932;25.904;2023-04-06T03:46:37;100233.81;;;5.24;76.69
8705;BME280;4389;41.932;25.904;2023-04-06T03:49:04;100236.25;;;5.15;76.38
8705;BME280;4389;41.932;25.904;2023-04-06T03:51:31;100236.88;;;5.31;76.77
8705;BME280;4389;41.932;25.904;2023-04-06T03:53:58;100229.72;;;5.33;77.03
8705;BME280;4389;41.932;25.904;2023-04-06T03:56:24;100236.44;;;5.37;78.13
8705;BME280;4389;41.932;25.904;2023-04-06T03:58:53;100235.34;;;5.39;77.92
8705;BME280;4389;41.932;25.904;2023-04-06T04:01:20;100238.09;;;5.38;76.69
8705;BME280;4389;41.932;25.904;2023-04-06T04:03:47;100240.72;;;5.38;77.59
8705;BME280;4389;41.932;25.904;2023-04-06T04:06:13;100243.34;;;5.38;77.45
8705;BME280;4389;41.932;25.904;2023-04-06T04:08:40;100248.47;;;5.39;77.41
8705;BME280;4389;41.932;25.904;2023-04-06T04:11:07;100247.41;;;5.42;76.98
8705;BME280;4389;41.932;25.904;2023-04-06T04:13:34;100254.22;;;5.44;76.53
8705;BME280;4389;41.932;25.904;2023-04-06T04:16:02;100251.28;;;5.49;76.62
8705;BME280;4389;41.932;25.904;2023-04-06T04:18:29;100259.84;;;5.63;76.31
8705;BME280;4389;41.932;25.904;2023-04-06T04:20:56;100255.50;;;5.75;75.43
8705;BME280;4389;41.932;25.904;2023-04-06T04:23:23;100257.28;;;5.74;75.06
8705;BME280;4389;41.932;25.904;2023-04-06T04:25:50;100253.81;;;5.74;74.60
8705;BME280;4389;41.932;25.904;2023-04-06T04:28:17;100251.31;;;5.72;74.84
8705;BME280;4389;41.932;25.904;2023-04-06T04:30:44;100263.75;;;5.94;74.50
8705;BME280;4389;41.932;25.904;2023-04-06T04:33:12;100255.19;;;6.03;73.78
8705;BME280;4389;41.932;25.904;2023-04-06T04:35:39;100256.78;;;5.93;72.56
8705;BME280;4389;41.932;25.904;2023-04-06T04:38:05;100253.59;;;5.77;74.12
8705;BME280;4389;41.932;25.904;2023-04-06T04:40:32;100254.78;;;5.73;72.54
8705;BME280;4389;41.932;25.904;2023-04-06T04:42:59;100255.66;;;5.61;73.21
8705;BME280;4389;41.932;25.904;2023-04-06T04:45:26;100254.19;;;5.57;73.63
8705;BME280;4389;41.932;25.904;2023-04-06T04:47:53;100254.03;;;5.71;73.13
8705;BME280;4389;41.932;25.904;2023-04-06T04:50:21;100253.69;;;5.88;71.85
8705;BME280;4389;41.932;25.904;2023-04-06T04:52:48;100258.03;;;6.00;72.00
8705;BME280;4389;41.932;25.904;2023-04-06T04:55:16;100259.25;;;6.07;70.64
8705;BME280;4389;41.932;25.904;2023-04-06T04:57:43;100250.91;;;6.02;71.51
8705;BME280;4389;41.932;25.904;2023-04-06T05:00:11;100255.00;;;6.17;70.13
8705;BME280;4389;41.932;25.904;2023-04-06T05:02:38;100259.56;;;6.26;70.30
8705;BME280;4389;41.932;25.904;2023-04-06T05:05:06;100263.50;;;5.97;70.96
8705;BME280;4389;41.932;25.904;2023-04-06T05:07:34;100268.59;;;5.87;70.02
8705;BME280;4389;41.932;25.904;2023-04-06T05:10:01;100262.53;;;5.87;71.04
8705;BME280;4389;41.932;25.904;2023-04-06T05:12:28;100261.84;;;5.96;70.89
8705;BME280;4389;41.932;25.904;2023-04-06T05:14:55;100246.53;;;5.90;70.35
8705;BME280;4389;41.932;25.904;2023-04-06T05:17:22;100256.13;;;5.78;72.57
8705;BME280;4389;41.932;25.904;2023-04-06T05:19:49;100257.38;;;5.85;71.95
8705;BME280;4389;41.932;25.904;2023-04-06T05:22:16;100269.09;;;6.16;72.42
8705;BME280;4389;41.932;25.904;2023-04-06T05:24:44;100259.91;;;5.87;72.94
8705;BME280;4389;41.932;25.904;2023-04-06T05:27:11;100259.50;;;5.68;72.32
8705;BME280;4389;41.932;25.904;2023-04-06T05:29:38;100264.88;;;5.66;73.06
8705;BME280;4389;41.932;25.904;2023-04-06T05:32:05;100257.75;;;5.56;72.90
8705;BME280;4389;41.932;25.904;2023-04-06T05:34:33;100266.81;;;5.52;73.48
8705;BME280;4389;41.932;25.904;2023-04-06T05:37:00;100250.75;;;5.56;73.08
8705;BME280;4389;41.932;25.904;2023-04-06T05:39:28;100256.22;;;5.77;74.14
8705;BME280;4389;41.932;25.904;2023-04-06T05:41:56;100263.34;;;5.87;72.14
8705;BME280;4389;41.932;25.904;2023-04-06T05:44:23;100267.56;;;5.77;72.13
8705;BME280;4389;41.932;25.904;2023-04-06T05:46:50;100263.97;;;5.91;72.46
8705;BME280;4389;41.932;25.904;2023-04-06T05:49:17;100257.03;;;5.90;70.75
8705;BME280;4389;41.932;25.904;2023-04-06T05:51:44;100253.00;;;5.97;70.59
8705;BME280;4389;41.932;25.904;2023-04-06T05:54:10;100254.59;;;6.10;71.72
8705;BME280;4389;41.932;25.904;2023-04-06T05:56:37;100254.94;;;6.06;71.04
8705;BME280;4389;41.932;25.904;2023-04-06T05:59:05;100254.28;;;6.15;70.73
8705;BME280;4389;41.932;25.904;2023-04-06T06:01:33;100260.84;;;6.44;71.72
8705;BME280;4389;41.932;25.904;2023-04-06T06:04:00;100256.09;;;6.71;70.66
8705;BME280;4389;41.932;25.904;2023-04-06T06:06:27;100249.09;;;6.82;70.02
8705;BME280;4389;41.932;25.904;2023-04-06T06:08:55;100250.50;;;6.86;69.52
8705;BME280;4389;41.932;25.904;2023-04-06T06:11:24;100250.13;;;6.58;70.63
8705;BME280;4389;41.932;25.904;2023-04-06T06:13:51;100240.09;;;6.74;69.82
8705;BME280;4389;41.932;25.904;2023-04-06T06:16:20;100246.06;;;6.65;69.88
8705;BME280;4389;41.932;25.904;2023-04-06T06:18:47;100252.63;;;6.81;68.93
8705;BME280;4389;41.932;25.904;2023-04-06T06:21:14;100255.66;;;6.99;68.30
8705;BME280;4389;41.932;25.904;2023-04-06T06:23:42;100254.66;;;6.67;68.77
8705;BME280;4389;41.932;25.904;2023-04-06T06:26:09;100259.00;;;6.90;68.66
8705;BME280;4389;41.932;25.904;2023-04-06T06:28:36;100251.59;;;7.06;68.74
8705;BME280;4389;41.932;25.904;2023-04-06T06:31:03;100248.72;;;7.20;68.11
8705;BME280;4389;41.932;25.904;2023-04-06T06:33:31;100249.19;;;7.36;67.96
8705;BME280;4389;41.932;25.904;2023-04-06T06:35:58;100252.16;;;7.42;67.69
8705;BME280;4389;41.932;25.904;2023-04-06T06:38:25;100255.84;;;7.62;67.69
8705;BME280;4389;41.932;25.904;2023-04-06T06:40:52;100255.34;;;8.10;66.77
8705;BME280;4389;41.932;25.904;2023-04-06T06:43:18;100252.84;;;8.09;63.28
8705;BME280;4389;41.932;25.904;2023-04-06T06:45:45;100260.16;;;8.37;63.33
8705;BME280;4389;41.932;25.904;2023-04-06T06:48:12;100255.97;;;8.03;64.18
8705;BME280;4389;41.932;25.904;2023-04-06T06:50:40;100259.47;;;7.92;63.25
8705;BME280;4389;41.932;25.904;2023-04-06T06:53:07;100257.72;;;7.82;62.07
8705;BME280;4389;41.932;25.904;2023-04-06T06:55:34;100257.06;;;7.47;62.72
8705;BME280;4389;41.932;25.904;2023-04-06T06:58:01;100259.94;;;7.33;63.82
8705;BME280;4389;41.932;25.904;2023-04-06T07:00:28;100270.72;;;7.30;65.76
8705;BME280;4389;41.932;25.904;2023-04-06T07:02:55;100274.25;;;7.62;65.00
8705;BME280;4389;41.932;25.904;2023-04-06T07:05:22;100267.50;;;7.91;63.85
8705;BME280;4389;41.932;25.904;2023-04-06T07:07:50;100264.34;;;8.39;63.46
8705;BME280;4389;41.932;25.904;2023-04-06T07:10:17;100268.50;;;8.42;62.64
8705;BME280;4389;41.932;25.904;2023-04-06T07:12:44;100255.97;;;8.55;62.17
8705;BME280;4389;41.932;25.904;2023-04-06T07:15:11;100258.50;;;8.36;63.50
8705;BME280;4389;41.932;25.904;2023-04-06T07:17:38;100270.03;;;8.24;62.95
8705;BME280;4389;41.932;25.904;2023-04-06T07:20:07;100255.09;;;8.24;64.07
8705;BME280;4389;41.932;25.904;2023-04-06T07:22:34;100247.69;;;8.39;65.50
8705;BME280;4389;41.932;25.904;2023-04-06T07:25:02;100247.94;;;8.77;64.66
8705;BME280;4389;41.932;25.904;2023-04-06T07:27:30;100243.75;;;8.54;62.44
8705;BME280;4389;41.932;25.904;2023-04-06T07:29:57;100240.34;;;8.63;62.55
8705;BME280;4389;41.932;25.904;2023-04-06T07:32:23;100239.91;;;8.78;62.77
8705;BME280;4389;41.932;25.904;2023-04-06T07:34:50;100248.59;;;8.69;59.66
8705;BME280;4389;41.932;25.904;2023-04-06T07:37:17;100242.97;;;8.83;61.32
8705;BME280;4389;41.932;25.904;2023-04-06T07:39:44;100231.94;;;8.98;60.54
8705;BME280;4389;41.932;25.904;2023-04-06T07:42:13;100232.69;;;8.80;59.91
8705;BME280;4389;41.932;25.904;2023-04-06T07:44:40;100231.06;;;8.88;61.16
8705;BME280;4389;41.932;25.904;2023-04-06T07:47:07;100220.00;;;8.94;61.27
8705;BME280;4389;41.932;25.904;2023-04-06T07:49:34;100219.28;;;8.93;60.18
8705;BME280;4389;41.932;25.904;2023-04-06T07:52:01;100224.13;;;8.88;60.89
8705;BME280;4389;41.932;25.904;2023-04-06T07:54:28;100207.81;;;9.03;59.12
8705;BME280;4389;41.932;25.904;2023-04-06T07:56:55;100216.72;;;9.11;61.27
8705;BME280;4389;41.932;25.904;2023-04-06T07:59:23;100209.56;;;9.32;60.82
8705;BME280;4389;41.932;25.904;2023-04-06T08:01:50;100209.91;;;9.48;61.27
8705;BME280;4389;41.932;25.904;2023-04-06T08:04:17;100211.97;;;9.35;60.07
8705;BME280;4389;41.932;25.904;2023-04-06T08:06:44;100205.00;;;9.34;59.14
8705;BME280;4389;41.932;25.904;2023-04-06T08:09:11;100202.88;;;9.19;59.64
8705;BME280;4389;41.932;25.904;2023-04-06T08:11:37;100206.25;;;9.30;59.13
8705;BME280;4389;41.932;25.904;2023-04-06T08:14:04;100193.19;;;9.38;60.17
8705;BME280;4389;41.932;25.904;2023-04-06T08:16:32;100201.56;;;9.53;59.47
8705;BME280;4389;41.932;25.904;2023-04-06T08:18:59;100196.59;;;9.78;61.78
8705;BME280;4389;41.932;25.904;2023-04-06T08:21:26;100196.72;;;9.77;59.34
8705;BME280;4389;41.932;25.904;2023-04-06T08:23:53;100201.72;;;9.80;56.92
8705;BME280;4389;41.932;25.904;2023-04-06T08:26:20;100192.41;;;9.66;56.99
8705;BME280;4389;41.932;25.904;2023-04-06T08:28:47;100197.69;;;9.66;58.57
8705;BME280;4389;41.932;25.904;2023-04-06T08:31:13;100191.75;;;9.74;55.73
8705;BME280;4389;41.932;25.904;2023-04-06T08:33:42;100199.66;;;9.74;57.82
8705;BME280;4389;41.932;25.904;2023-04-06T08:36:10;100191.97;;;9.61;57.61
8705;BME280;4389;41.932;25.904;2023-04-06T08:38:37;100206.63;;;9.84;58.96
8705;BME280;4389;41.932;25.904;2023-04-06T08:41:08;100190.75;;;9.75;56.64
8705;BME280;4389;41.932;25.904;2023-04-06T08:43:42;100188.88;;;10.05;57.62
8705;BME280;4389;41.932;25.904;2023-04-06T08:46:10;100193.94;;;9.97;55.57
8705;BME280;4389;41.932;25.904;2023-04-06T08:48:38;100186.03;;;9.97;56.14
8705;BME280;4389;41.932;25.904;2023-04-06T08:51:08;100182.03;;;10.12;55.49
8705;BME280;4389;41.932;25.904;2023-04-06T08:53:35;100185.50;;;10.22;53.28
8705;BME280;4389;41.932;25.904;2023-04-06T08:56:03;100194.38;;;9.93;54.40
8705;BME280;4389;41.932;25.904;2023-04-06T08:58:34;100189.13;;;10.12;56.78
8705;BME280;4389;41.932;25.904;2023-04-06T09:01:02;100190.66;;;10.14;56.52
8705;BME280;4389;41.932;25.904;2023-04-06T09:03:34;100193.00;;;9.98;57.36
8705;BME280;4389;41.932;25.904;2023-04-06T09:06:04;100180.34;;;10.30;56.61
8705;BME280;4389;41.932;25.904;2023-04-06T09:08:32;100178.81;;;10.18;53.65
8705;BME280;4389;41.932;25.904;2023-04-06T09:11:00;100180.34;;;10.30;55.86
8705;BME280;4389;41.932;25.904;2023-04-06T09:13:28;100180.75;;;10.35;53.55
8705;BME280;4389;41.932;25.904;2023-04-06T09:15:59;100172.94;;;10.43;55.19
8705;BME280;4389;41.932;25.904;2023-04-06T09:18:30;100169.84;;;10.57;54.77
8705;BME280;4389;41.932;25.904;2023-04-06T09:20:58;100168.63;;;10.79;56.63
8705;BME280;4389;41.932;25.904;2023-04-06T09:23:26;100167.56;;;10.72;54.32
8705;BME280;4389;41.932;25.904;2023-04-06T09:26:05;100156.72;;;10.65;55.79
8705;BME280;4389;41.932;25.904;2023-04-06T09:28:41;100162.59;;;10.59;54.79
8705;BME280;4389;41.932;25.904;2023-04-06T09:31:08;100161.69;;;10.78;55.39
8705;BME280;4389;41.932;25.904;2023-04-06T09:33:37;100147.63;;;10.77;54.70
8705;BME280;4389;41.932;25.904;2023-04-06T09:36:05;100143.19;;;11.05;53.99
8705;BME280;4389;41.932;25.904;2023-04-06T09:38:32;100142.56;;;11.20;55.99
8705;BME280;4389;41.932;25.904;2023-04-06T09:40:59;100134.69;;;11.28;54.55
8705;BME280;4389;41.932;25.904;2023-04-06T09:43:27;100129.94;;;11.32;56.53
8705;BME280;4389;41.932;25.904;2023-04-06T09:45:55;100136.81;;;11.25;54.69
8705;BME280;4389;41.932;25.904;2023-04-06T09:48:24;100123.03;;;11.21;53.50
8705;BME280;4389;41.932;25.904;2023-04-06T09:50:56;100129.41;;;11.28;54.01
8705;BME280;4389;41.932;25.904;2023-04-06T09:53:26;100123.56;;;11.25;54.57
8705;BME280;4389;41.932;25.904;2023-04-06T09:55:57;100116.78;;;11.40;52.66
8705;BME280;4389;41.932;25.904;2023-04-06T09:58:33;100136.25;;;11.48;53.27
8705;BME280;4389;41.932;25.904;2023-04-06T10:01:05;100129.75;;;11.60;53.31
8705;BME280;4389;41.932;25.904;2023-04-06T10:03:40;100118.28;;;11.42;52.84
8705;BME280;4389;41.932;25.904;2023-04-06T10:06:13;100111.63;;;11.38;52.14
8705;BME280;4389;41.932;25.904;2023-04-06T10:08:42;100113.69;;;11.79;53.97
8705;BME280;4389;41.932;25.904;2023-04-06T10:11:11;100111.09;;;11.52;54.20
8705;BME280;4389;41.932;25.904;2023-04-06T10:13:40;100122.84;;;11.67;53.85
8705;BME280;4389;41.932;25.904;2023-04-06T10:16:07;100108.25;;;11.63;53.39
8705;BME280;4389;41.932;25.904;2023-04-06T10:18:35;100107.47;;;11.53;52.59
8705;BME280;4389;41.932;25.904;2023-04-06T10:21:06;100099.97;;;11.49;51.92
8705;BME280;4389;41.932;25.904;2023-04-06T10:23:36;100090.50;;;11.81;51.70
8705;BME280;4389;41.932;25.904;2023-04-06T10:26:13;100097.91;;;11.95;51.83
8705;BME280;4389;41.932;25.904;2023-04-06T10:28:44;100107.03;;;11.75;50.97
8705;BME280;4389;41.932;25.904;2023-04-06T10:31:12;100077.03;;;11.92;51.96
8705;BME280;4389;41.932;25.904;2023-04-06T10:33:39;100085.28;;;11.89;51.32
8705;BME280;4389;41.932;25.904;2023-04-06T10:36:10;100082.78;;;12.05;50.49
8705;BME280;4389;41.932;25.904;2023-04-06T10:38:38;100072.88;;;11.90;51.21
8705;BME280;4389;41.932;25.904;2023-04-06T10:41:06;100074.25;;;12.19;51.42
8705;BME280;4389;41.932;25.904;2023-04-06T10:43:35;100071.41;;;12.21;51.09
8705;BME280;4389;41.932;25.904;2023-04-06T10:46:05;100079.94;;;12.07;49.35
8705;BME280;4389;41.932;25.904;2023-04-06T10:48:38;100071.16;;;12.32;50.97
8705;BME280;4389;41.932;25.904;2023-04-06T10:51:11;100085.75;;;12.36;52.24
8705;BME280;4389;41.932;25.904;2023-04-06T10:53:38;100083.34;;;12.42;50.91
8705;BME280;4389;41.932;25.904;2023-04-06T10:56:09;100068.16;;;12.60;50.15
8705;BME280;4389;41.932;25.904;2023-04-06T10:58:37;100077.00;;;12.69;49.82
8705;BME280;4389;41.932;25.904;2023-04-06T11:01:10;100074.41;;;12.51;49.74
8705;BME280;4389;41.932;25.904;2023-04-06T11:03:42;100070.59;;;12.87;50.68
8705;BME280;4389;41.932;25.904;2023-04-06T11:06:09;100070.09;;;13.25;48.43
8705;BME280;4389;41.932;25.904;2023-04-06T11:08:38;100067.44;;;13.33;48.17
8705;BME280;4389;41.932;25.904;2023-04-06T11:11:06;100066.03;;;12.97;49.61
8705;BME280;4389;41.932;25.904;2023-04-06T11:13:41;100066.25;;;12.78;48.54
8705;BME280;4389;41.932;25.904;2023-04-06T11:16:14;100059.25;;;12.69;49.32
8705;BME280;4389;41.932;25.904;2023-04-06T11:18:51;100056.59;;;12.69;48.27
8705;BME280;4389;41.932;25.904;2023-04-06T11:21:19;100054.66;;;12.87;47.58
8705;BME280;4389;41.932;25.904;2023-04-06T11:23:46;100049.72;;;12.92;44.36
8705;BME280;4389;41.932;25.904;2023-04-06T11:26:14;100055.94;;;13.09;44.15
8705;BME280;4389;41.932;25.904;2023-04-06T11:28:41;100055.31;;;13.23;44.80
8705;BME280;4389;41.932;25.904;2023-04-06T11:31:09;100041.03;;;13.24;44.70
8705;BME280;4389;41.932;25.904;2023-04-06T11:33:38;100029.25;;;13.34;46.99
8705;BME280;4389;41.932;25.904;2023-04-06T11:36:05;100029.91;;;13.28;46.91
8705;BME280;4389;41.932;25.904;2023-04-06T11:38:33;100034.22;;;13.45;48.27
8705;BME280;4389;41.932;25.904;2023-04-06T11:41:01;100041.66;;;13.18;46.99
8705;BME280;4389;41.932;25.904;2023-04-06T11:43:28;100029.25;;;13.42;47.53
8705;BME280;4389;41.932;25.904;2023-04-06T11:46:02;100025.22;;;13.14;47.49
8705;BME280;4389;41.932;25.904;2023-04-06T11:48:30;100026.25;;;13.21;49.05
8705;BME280;4389;41.932;25.904;2023-04-06T11:50:59;100024.94;;;13.33;46.47
8705;BME280;4389;41.932;25.904;2023-04-06T11:53:27;100017.25;;;13.22;46.92
8705;BME280;4389;41.932;25.904;2023-04-06T11:55:54;100016.63;;;13.60;48.33
8705;BME280;4389;41.932;25.904;2023-04-06T11:58:21;100018.63;;;13.90;47.84
8705;BME280;4389;41.932;25.904;2023-04-06T12:00:48;100016.63;;;13.60;47.26
8705;BME280;4389;41.932;25.904;2023-04-06T12:03:15;100019.63;;;13.49;49.26
8705;BME280;4389;41.932;25.904;2023-04-06T12:05:43;100002.34;;;13.61;47.58
8705;BME280;4389;41.932;25.904;2023-04-06T12:08:12;100008.16;;;13.33;46.38
8705;BME280;4389;41.932;25.904;2023-04-06T12:10:39;100007.66;;;13.37;46.61
8705;BME280;4389;41.932;25.904;2023-04-06T12:13:05;100006.69;;;13.54;45.37
8705;BME280;4389;41.932;25.904;2023-04-06T12:15:32;99997.19;;;13.68;46.88
8705;BME280;4389;41.932;25.904;2023-04-06T12:17:59;99999.81;;;13.91;45.81
8705;BME280;4389;41.932;25.904;2023-04-06T12:20:26;100005.34;;;13.82;43.65
8705;BME280;4389;41.932;25.904;2023-04-06T12:22:53;99994.34;;;13.85;44.68
8705;BME280;4389;41.932;25.904;2023-04-06T12:25:21;99996.34;;;13.83;44.16
8705;BME280;4389;41.932;25.904;2023-04-06T12:27:48;99988.03;;;13.86;46.02
8705;BME280;4389;41.932;25.904;2023-04-06T12:30:15;99981.69;;;13.87;45.17
8705;BME280;4389;41.932;25.904;2023-04-06T12:32:42;99995.34;;;13.92;45.29
8705;BME280;4389;41.932;25.904;2023-04-06T12:35:09;99982.66;;;14.02;44.67
8705;BME280;4389;41.932;25.904;2023-04-06T12:37:37;99986.53;;;13.83;45.01
8705;BME280;4389;41.932;25.904;2023-04-06T12:40:05;99982.72;;;13.46;45.40
8705;BME280;4389;41.932;25.904;2023-04-06T12:42:34;99980.06;;;13.70;46.38
8705;BME280;4389;41.932;25.904;2023-04-06T12:45:01;99980.69;;;13.96;44.32
8705;BME280;4389;41.932;25.904;2023-04-06T12:47:28;99969.09;;;13.89;43.80
8705;BME280;4389;41.932;25.904;2023-04-06T12:49:55;99970.31;;;14.17;44.39
8705;BME280;4389;41.932;25.904;2023-04-06T12:52:22;99973.34;;;14.06;44.48
8705;BME280;4389;41.932;25.904;2023-04-06T12:54:49;99975.66;;;14.09;43.64
8705;BME280;4389;41.932;25.904;2023-04-06T12:57:17;99959.69;;;14.25;43.29
8705;BME280;4389;41.932;25.904;2023-04-06T12:59:45;99975.16;;;14.05;41.92
8705;BME280;4389;41.932;25.904;2023-04-06T13:02:12;99964.03;;;14.18;42.95
8705;BME280;4389;41.932;25.904;2023-04-06T13:04:39;99967.00;;;14.15;43.56
8705;BME280;4389;41.932;25.904;2023-04-06T13:07:06;99957.75;;;14.03;43.13
8705;BME280;4389;41.932;25.904;2023-04-06T13:09:32;99958.00;;;14.16;43.76